Time;durP1;ratioP1;P1;durP2;ratioP2;P2;SDS_P1;SDS_P2;PMS_P1;PMS_P2;Temp;Humidity;BMP_temperature;BMP_pressure;BME280_temperature;BME280_humidity;BME280_pressure;Samples;Min_cycle;Max_cycle;Signal;HPM_P1;HPM_P2
2022/09/05 00:01:46;;;;;;;1.38;0.98;;;;;;;21.29;52.24;94026.34;4868792;29;20061;-92
2022/09/05 00:04:20;;;;;;;0.73;0.73;;;;;;;21.27;52.08;94017.84;4855504;29;20042;-89
2022/09/05 00:06:51;;;;;;;0.93;0.90;;;;;;;21.27;52.21;94011.59;4822916;29;20076;-91
2022/09/05 00:09:43;;;;;;;1.33;0.98;;;;;;;21.27;52.03;94006.09;4822113;29;20087;-92
2022/09/05 00:12:09;;;;;;;2.35;0.98;;;;;;;21.27;52.32;94009.59;4835533;29;20050;-92
2022/09/05 00:14:38;;;;;;;1.02;0.82;;;;;;;21.28;52.17;94007.59;4822150;29;20046;-88
2022/09/05 00:17:28;;;;;;;0.90;0.77;;;;;;;21.26;52.14;94001.88;4833251;29;20174;-91
2022/09/05 00:20:02;;;;;;;1.10;0.93;;;;;;;21.26;52.15;93994.34;4832655;29;20533;-92
2022/09/05 00:22:31;;;;;;;1.25;1.13;;;;;;;21.27;52.04;94001.34;4820776;29;20586;-91
2022/09/05 00:25:23;;;;;;;1.33;1.02;;;;;;;21.27;52.14;94001.34;4834523;29;20565;-91
2022/09/05 00:27:54;;;;;;;1.20;1.00;;;;;;;21.27;51.81;93998.59;4850351;29;20046;-92
2022/09/05 00:30:20;;;;;;;1.48;1.00;;;;;;;;;;4852031;29;20519;-93
2022/09/05 00:33:04;;;;;;;1.23;0.80;;;;;;;21.26;52.15;93994.34;4856600;29;20045;-94
2022/09/05 00:35:51;;;;;;;1.05;0.95;;;;;;;21.26;52.07;93994.34;4838108;29;20057;-90
2022/09/05 00:38:19;;;;;;;1.23;1.00;;;;;;;21.26;52.07;93994.34;4852743;29;20275;-90
2022/09/05 00:40:47;;;;;;;1.23;0.98;;;;;;;21.27;52.11;93995.84;4837028;29;20033;-91
2022/09/05 00:43:20;;;;;;;1.27;0.90;;;;;;;21.25;51.96;93992.13;4821936;29;20038;-93
2022/09/05 00:45:47;;;;;;;1.55;1.33;;;;;;;21.24;52.10;94001.63;4822167;29;20059;-88
2022/09/05 00:48:17;;;;;;;1.75;1.10;;;;;;;21.28;52.04;93988.34;4836894;29;20122;-92
2022/09/05 00:51:01;;;;;;;1.77;1.23;;;;;;;;;;4837205;29;20050;-92
2022/09/05 00:53:36;;;;;;;1.70;1.10;;;;;;;21.26;52.11;93991.59;4845933;29;20049;-93
2022/09/05 00:56:24;;;;;;;1.77;1.08;;;;;;;21.24;51.94;93994.13;4870898;29;20056;-91
2022/09/05 00:58:58;;;;;;;1.38;0.90;;;;;;;21.24;52.06;93991.38;4855941;29;20049;-92
2022/09/05 01:01:31;;;;;;;1.98;0.98;;;;;;;21.26;52.03;93996.38;4855448;29;20456;-90
2022/09/05 01:04:26;;;;;;;1.13;0.95;;;;;;;21.26;52.20;93999.13;4855700;29;20597;-92
2022/09/05 01:07:02;;;;;;;1.13;0.90;;;;;;;21.23;52.20;94002.88;4839633;29;20041;-91
2022/09/05 01:09:42;;;;;;;1.15;1.05;;;;;;;21.24;51.95;93990.63;4871244;29;20045;-91
2022/09/05 01:12:26;;;;;;;0.80;0.80;;;;;;;21.24;51.85;93998.88;4854472;29;20049;-92
2022/09/05 01:15:13;;;;;;;1.10;1.00;;;;;;;21.23;51.96;93992.63;4859543;29;20045;-93
2022/09/05 01:18:03;;;;;;;1.10;0.80;;;;;;;21.26;52.11;93988.13;4849219;29;20074;-90
2022/09/05 01:20:39;;;;;;;1.77;1.30;;;;;;;21.25;52.01;94000.38;4853648;29;20042;-93
2022/09/05 01:23:23;;;;;;;1.30;0.90;;;;;;;21.26;52.12;93993.63;4825179;29;20038;-93
2022/09/05 01:26:08;;;;;;;1.50;1.20;;;;;;;21.21;51.97;93986.94;4855881;29;20607;-92
2022/09/05 01:28:45;;;;;;;0.82;0.75;;;;;;;21.23;51.79;93991.88;4824903;29;20046;-89
2022/09/05 01:31:15;;;;;;;1.13;0.80;;;;;;;21.23;52.05;93989.88;4839571;29;20054;-90
2022/09/05 01:34:00;;;;;;;0.88;0.82;;;;;;;21.23;51.95;93992.63;4840194;29;20038;-93
2022/09/05 01:37:16;;;;;;;1.52;1.20;;;;;;;21.22;52.09;93988.41;4839747;29;20042;-91
2022/09/05 01:39:53;;;;;;;1.83;1.00;;;;;;;21.24;51.98;93990.63;4787839;29;20043;-90
2022/09/05 01:42:18;;;;;;;1.58;1.02;;;;;;;21.23;52.10;93980.88;4813102;29;20111;-92
2022/09/05 01:44:56;;;;;;;0.88;0.82;;;;;;;21.23;51.97;93978.13;4820807;29;20058;-90
2022/09/05 01:47:34;;;;;;;1.92;1.35;;;;;;;21.22;52.03;93976.69;4818945;29;20049;-90
2022/09/05 01:50:12;;;;;;;1.15;0.80;;;;;;;21.24;51.90;93971.38;4805879;29;20050;-89
2022/09/05 01:52:49;;;;;;;0.88;0.80;;;;;;;21.23;51.89;93976.13;4820858;29;20604;-92
2022/09/05 01:55:17;;;;;;;1.08;0.98;;;;;;;21.22;51.97;93985.66;4801790;29;20097;-94
2022/09/05 01:58:07;;;;;;;1.20;0.93;;;;;;;21.23;51.75;93981.63;4801679;29;20494;-92
2022/09/05 02:00:42;;;;;;;1.90;1.00;;;;;;;21.23;51.92;93980.88;4786928;29;20070;-90
2022/09/05 02:03:36;;;;;;;1.13;0.88;;;;;;;21.22;51.85;93980.16;4802021;29;20047;-90
2022/09/05 02:06:06;;;;;;;1.30;1.00;;;;;;;21.22;51.91;93973.94;4795710;29;20060;-89
2022/09/05 02:09:09;;;;;;;0.80;0.80;;;;;;;21.23;51.88;93969.88;4804248;29;20103;-91
2022/09/05 02:11:54;;;;;;;1.27;1.02;;;;;;;21.22;52.06;93980.16;4810160;29;20051;-92
2022/09/05 02:14:28;;;;;;;1.48;1.10;;;;;;;21.20;51.93;93966.94;4806501;29;20061;-91
2022/09/05 02:16:54;;;;;;;1.58;1.15;;;;;;;21.20;51.91;93966.94;4836469;29;20061;-93
2022/09/05 02:19:25;;;;;;;0.95;0.85;;;;;;;21.20;52.10;93974.44;4872404;29;20045;-91
2022/09/05 02:21:53;;;;;;;1.48;1.10;;;;;;;21.22;51.86;93973.94;4858034;29;20041;-92
2022/09/05 02:24:34;;;;;;;1.30;0.90;;;;;;;21.20;51.96;93979.94;4872792;29;20041;-93
2022/09/05 02:27:12;;;;;;;1.58;1.10;;;;;;;21.21;51.86;93964.94;4857461;29;20045;-89
2022/09/05 02:29:50;;;;;;;0.82;0.80;;;;;;;21.20;51.95;93977.94;4837621;29;20049;-88
2022/09/05 02:32:38;;;;;;;1.23;1.00;;;;;;;21.21;51.96;93978.69;4840280;29;20054;-92
2022/09/05 02:35:09;;;;;;;1.52;0.88;;;;;;;21.20;52.11;93975.19;4838936;29;20134;-91
2022/09/05 02:37:44;;;;;;;2.05;1.15;;;;;;;21.22;52.03;93969.16;4854820;29;20042;-92
2022/09/05 02:40:27;;;;;;;1.15;0.90;;;;;;;21.21;51.99;93967.69;4854201;29;20038;-93
2022/09/05 02:43:01;;;;;;;1.05;0.95;;;;;;;21.22;52.03;93968.44;4854012;29;20050;-92
2022/09/05 02:45:46;;;;;;;1.13;0.90;;;;;;;21.22;51.84;93968.44;4838882;29;20042;-90
2022/09/05 02:48:32;;;;;;;1.13;0.90;;;;;;;21.20;51.89;93977.94;4838094;29;20062;-90
2022/09/05 02:51:00;;;;;;;1.27;1.10;;;;;;;21.20;52.06;93966.94;4839074;29;20110;-91
2022/09/05 02:53:25;;;;;;;1.77;1.02;;;;;;;21.20;52.04;93971.69;4838330;29;20048;-91
2022/09/05 02:55:55;;;;;;;1.85;1.00;;;;;;;21.21;52.08;93975.94;4824222;29;20042;-91
2022/09/05 02:58:33;;;;;;;1.23;0.93;;;;;;;21.19;51.98;93979.16;4851512;29;20049;-90
2022/09/05 03:01:08;;;;;;;1.80;1.08;;;;;;;21.19;52.10;93975.66;4858750;29;20168;-90
2022/09/05 03:03:36;;;;;;;0.77;0.77;;;;;;;21.20;52.00;93971.69;4857428;29;20045;-93
2022/09/05 03:06:27;;;;;;;1.17;1.08;;;;;;;21.18;52.12;93966.69;4850821;29;20038;-90
2022/09/05 03:09:02;;;;;;;1.67;1.10;;;;;;;21.18;51.53;93963.94;4808466;29;20062;-92
2022/09/05 03:11:52;;;;;;;1.48;0.90;;;;;;;21.19;52.06;93964.66;4825164;29;20045;-92
2022/09/05 03:14:33;;;;;;;1.10;0.88;;;;;;;21.18;51.92;93963.94;4853244;29;20060;-90
2022/09/05 03:17:20;;;;;;;1.20;1.02;;;;;;;21.18;52.03;93965.94;4838929;29;20042;-88
2022/09/05 03:20:03;;;;;;;1.40;0.98;;;;;;;21.19;51.78;93959.91;4804899;29;20054;-92
2022/09/05 03:22:50;;;;;;;1.10;1.00;;;;;;;21.18;51.94;93960.44;4821060;29;20061;-92
2022/09/05 03:25:22;;;;;;;1.00;0.90;;;;;;;21.19;51.87;93959.91;4834531;29;20054;-89
2022/09/05 03:28:24;;;;;;;1.00;0.90;;;;;;;21.18;51.97;93958.44;4835587;29;20546;-91
2022/09/05 03:31:27;;;;;;;1.23;1.13;;;;;;;21.18;51.95;93950.19;4846551;29;20050;-92
2022/09/05 03:34:11;;;;;;;2.03;1.30;;;;;;;21.20;51.79;93955.94;4853702;29;20038;-89
2022/09/05 03:36:57;;;;;;;1.15;1.05;;;;;;;21.18;51.93;93952.94;4853319;29;20206;-93
2022/09/05 03:39:56;;;;;;;1.40;1.00;;;;;;;21.18;51.91;93950.19;4852381;29;20073;-93
2022/09/05 03:42:34;;;;;;;1.30;1.20;;;;;;;21.19;51.85;93959.19;4834677;29;20050;-92
2022/09/05 03:45:30;;;;;;;1.42;1.17;;;;;;;21.17;51.95;93961.69;4857200;29;20505;-91
2022/09/05 03:48:13;;;;;;;1.30;0.98;;;;;;;21.17;52.06;93958.94;4871901;29;20056;-93
2022/09/05 03:50:59;;;;;;;1.33;1.10;;;;;;;21.16;51.89;93960.94;4871062;29;20041;-92
2022/09/05 03:53:33;;;;;;;1.33;1.00;;;;;;;21.16;51.77;93952.69;4856063;29;20049;-89
2022/09/05 03:56:10;;;;;;;1.35;1.00;;;;;;;21.15;51.99;93953.97;4821138;29;20053;-91
2022/09/05 03:58:39;;;;;;;1.45;1.10;;;;;;;21.16;52.00;93957.44;4848302;29;20046;-91
2022/09/05 04:01:10;;;;;;;2.13;1.27;;;;;;;21.15;51.84;93959.47;4850726;29;20703;-88
2022/09/05 04:03:48;;;;;;;1.42;1.20;;;;;;;21.16;51.82;93955.44;4852128;29;20069;-88
2022/09/05 04:06:34;;;;;;;1.05;0.98;;;;;;;21.15;51.97;93964.94;4834530;29;20046;-94
2022/09/05 04:09:19;;;;;;;1.10;1.00;;;;;;;21.17;52.04;93962.44;4852328;29;20037;-93
2022/09/05 04:11:49;;;;;;;1.00;0.90;;;;;;;21.16;51.96;93971.19;4855870;29;20038;-90
2022/09/05 04:14:23;;;;;;;1.33;1.10;;;;;;;21.15;51.89;93969.72;4838091;29;20060;-92
2022/09/05 04:16:51;;;;;;;1.45;1.00;;;;;;;21.19;52.22;93972.91;4851039;29;20046;-89
2022/09/05 04:19:27;;;;;;;1.80;1.05;;;;;;;21.16;51.97;93982.19;4811993;29;20066;-90
2022/09/05 04:22:02;;;;;;;1.90;1.10;;;;;;;21.16;52.02;93974.69;4803512;29;20050;-91
2022/09/05 04:24:41;;;;;;;1.65;1.30;;;;;;;21.17;52.08;93984.44;4844605;29;20078;-93
2022/09/05 04:27:28;;;;;;;2.55;1.10;;;;;;;21.17;52.02;93983.69;4835683;29;20524;-87
2022/09/05 04:29:53;;;;;;;2.63;1.20;;;;;;;21.19;51.88;93981.16;4837064;29;20562;-91
2022/09/05 04:32:30;;;;;;;11.07;2.63;;;;;;;21.19;52.00;93984.66;4837614;29;20046;-84
2022/09/05 04:35:18;;;;;;;606.17;539.45;;;;;;;21.27;52.01;93990.34;4836673;29;20056;-87
2022/09/05 04:37:58;;;;;;;19.08;10.60;;;;;;;21.26;52.03;93980.59;4838922;29;20053;-90
2022/09/05 04:40:31;;;;;;;13.82;4.32;;;;;;;21.27;52.13;93992.34;4833987;29;20082;-92
2022/09/05 04:42:59;;;;;;;7.50;4.10;;;;;;;21.27;51.91;93993.09;4859871;29;20113;-86
2022/09/05 04:45:28;;;;;;;7.57;3.42;;;;;;;21.30;51.59;93989.31;4840471;29;20482;-86
2022/09/05 04:47:53;;;;;;;6.35;4.10;;;;;;;21.33;51.75;93993.03;4826482;29;20653;-91
2022/09/05 04:50:21;;;;;;;6.95;4.55;;;;;;;21.32;51.72;93997.06;4818990;29;20050;-93
2022/09/05 04:53:04;;;;;;;10.10;5.68;;;;;;;21.32;51.65;93999.81;4846735;29;20053;-89
2022/09/05 04:55:33;;;;;;;20.65;6.03;;;;;;;21.31;51.87;94001.06;4858041;29;20058;-92
2022/09/05 04:58:05;;;;;;;25.90;9.43;;;;;;;21.31;51.88;94001.06;4868948;29;20076;-89
2022/09/05 05:01:07;;;;;;;57.90;18.42;;;;;;;21.30;51.81;94002.31;4876001;23;20053;-89
2022/09/05 05:03:34;;;;;;;22.25;8.18;;;;;;;21.23;52.51;94006.38;4846605;29;20079;-90
2022/09/05 05:06:23;;;;;;;56.97;23.65;;;;;;;21.21;52.79;93992.44;4961150;23;20054;-91
2022/09/05 05:09:07;;;;;;;37.97;14.38;;;;;;;21.17;53.09;93991.94;4863996;23;20027;-90
2022/09/05 05:11:32;;;;;;;27.10;10.63;;;;;;;21.17;53.23;93987.19;4834478;29;20028;-88
2022/09/05 05:14:21;;;;;;;25.65;10.70;;;;;;;21.17;53.29;93998.19;4892846;23;20067;-92
2022/09/05 05:20:13;;;;;;;66.72;18.70;;;;;;;21.13;53.85;94003.22;4872755;29;20074;-89
2022/09/05 05:23:10;;;;;;;53.40;14.85;;;;;;;21.15;54.16;94011.69;4849884;29;20132;-90
2022/09/05 05:25:56;;;;;;;23.45;10.77;;;;;;;21.12;54.54;94012.72;4855144;29;20068;-91
2022/09/05 05:28:28;;;;;;;38.33;19.90;;;;;;;21.10;54.54;94020.00;4845459;29;20575;-93
2022/09/05 05:30:56;;;;;;;60.58;21.80;;;;;;;21.09;54.91;94018.50;4878961;29;20037;-92
2022/09/05 05:33:27;;;;;;;53.17;16.98;;;;;;;21.13;54.83;94019.72;4851652;29;20097;-91
2022/09/05 05:35:58;;;;;;;85.13;20.17;;;;;;;21.11;54.71;94015.97;4836606;29;20050;-94
2022/09/05 05:39:06;;;;;;;91.68;22.15;;;;;;;21.12;54.79;94011.97;4868543;29;20074;-92
2022/09/05 05:42:17;;;;;;;36.25;10.65;;;;;;;21.14;54.65;94014.97;4855749;29;20072;-93
2022/09/05 05:47:50;;;;;;;47.40;13.77;;;;;;;21.14;54.61;94012.94;5073183;23;20067;-93
2022/09/05 05:53:42;;;;;;;52.95;15.05;;;;;;;21.09;54.84;94022.00;5089874;23;20064;-92
2022/09/05 05:56:41;;;;;;;41.88;14.30;;;;;;;21.14;54.76;94029.44;4878170;29;20132;-90
2022/09/05 05:59:29;;;;;;;40.90;18.92;;;;;;;21.17;54.60;94024.94;4864244;29;20037;-93
2022/09/05 06:02:40;;;;;;;29.33;12.73;;;;;;;21.15;54.83;94028.19;4859637;29;20049;-93
2022/09/05 06:05:29;;;;;;;45.20;14.95;;;;;;;21.16;55.09;94026.19;4839565;29;20076;-94
2022/09/05 06:08:15;;;;;;;;;;;;;;;21.18;55.42;94027.16;4891476;29;20048;-90
2022/09/05 06:11:18;;;;;;;28.67;10.70;;;;;;;21.21;55.87;94028.19;4872560;23;19927;-91
2022/09/05 06:14:05;;;;;;;16.17;8.38;;;;;;;21.19;56.17;94025.91;4881226;29;20196;-92
2022/09/05 06:16:53;;;;;;;15.50;8.18;;;;;;;21.21;55.87;94019.94;4866340;29;20056;-92
2022/09/05 06:19:36;;;;;;;13.65;7.18;;;;;;;21.19;56.25;94022.41;4851430;29;20427;-90
2022/09/05 06:22:30;;;;;;;11.77;7.05;;;;;;;21.23;55.91;94022.88;4875332;29;20073;-92
2022/09/05 06:25:36;;;;;;;18.33;7.57;;;;;;;21.29;55.77;94029.06;4866752;29;20044;-94
2022/09/05 06:28:34;;;;;;;;;;;;;;;;;;;;;
2022/09/05 06:31:34;;;;;;;14.18;9.13;;;;;;;21.30;56.34;94010.56;4857785;29;20227;-93
2022/09/05 06:34:47;;;;;;;27.75;9.73;;;;;;;21.30;56.44;94018.81;4847216;29;20060;-95
2022/09/05 06:50:10;;;;;;;31.80;11.60;;;;;;;21.33;56.94;94026.06;4893555;23;20048;-89
2022/09/05 06:53:06;;;;;;;26.00;11.10;;;;;;;21.33;56.90;94037.06;4867201;29;20452;-90
2022/09/05 06:55:57;;;;;;;39.25;13.18;;;;;;;21.34;57.04;94033.78;4854399;29;20036;-90
2022/09/05 06:59:03;;;;;;;48.05;14.77;;;;;;;21.35;57.04;94037.28;4876560;29;20736;-86
2022/09/05 07:01:33;;;;;;;64.93;16.48;;;;;;;21.37;56.92;94034.75;4871995;29;20053;-89
2022/09/05 07:04:13;;;;;;;34.20;14.85;;;;;;;21.41;56.94;94035.97;4850660;29;20047;-92
2022/09/05 07:06:47;;;;;;;;;;;;;;;21.41;56.88;94035.97;4884491;29;20049;-91
2022/09/05 07:09:22;;;;;;;42.20;16.27;;;;;;;21.41;57.35;94035.97;4876697;23;19930;-91
2022/09/05 07:12:02;;;;;;;35.33;15.70;;;;;;;21.41;56.84;94037.97;4874026;29;20048;-94
2022/09/05 07:14:31;;;;;;;138.82;30.27;;;;;;;21.47;56.85;94050.41;4839359;29;20056;-89
2022/09/05 07:17:12;;;;;;;124.40;27.30;;;;;;;21.43;56.87;94049.22;4870959;29;20075;-94
2022/09/05 07:19:50;;;;;;;81.15;22.02;;;;;;;21.44;57.15;94043.16;4821098;29;20636;-93
2022/09/05 07:22:31;;;;;;;74.80;17.27;;;;;;;21.46;56.98;94051.66;4843717;29;20078;-92
2022/09/05 07:24:57;;;;;;;70.97;22.60;;;;;;;21.48;56.99;94045.63;4853878;29;20048;-91
2022/09/05 07:28:04;;;;;;;155.70;34.92;;;;;;;21.48;56.82;94043.63;4823674;29;20551;-88
2022/09/05 07:30:30;;;;;;;111.70;25.98;;;;;;;21.52;56.61;94046.09;4806284;29;20056;-90
2022/09/05 07:32:56;;;;;;;85.47;25.30;;;;;;;21.51;56.71;94039.13;4801691;29;20051;-94
2022/09/05 07:35:30;;;;;;;89.88;36.88;;;;;;;21.52;56.72;94043.34;4784350;29;20045;-88
2022/09/05 07:38:16;;;;;;;116.85;41.45;;;;;;;21.52;56.83;94035.84;4806937;29;20053;-93
2022/09/05 07:40:52;;;;;;;111.03;46.50;;;;;;;21.57;56.93;94047.31;4815317;29;20122;-91
2022/09/05 07:43:23;;;;;;;163.57;68.25;;;;;;;21.61;56.52;94045.78;4787772;29;20246;-92
2022/09/05 07:46:00;;;;;;;175.40;84.13;;;;;;;21.60;56.46;94038.78;4794175;29;20145;-91
2022/09/05 07:48:38;;;;;;;196.25;87.03;;;;;;;21.60;56.33;94041.53;4794204;29;20196;-86
2022/09/05 07:51:24;;;;;;;212.02;80.80;;;;;;;21.60;56.23;94033.28;4800701;29;20063;-86
2022/09/05 07:53:53;;;;;;;216.15;78.78;;;;;;;21.63;56.00;94045.25;4818535;29;20053;-87
2022/09/05 07:56:43;;;;;;;162.95;64.95;;;;;;;21.63;55.83;94048.00;4888859;23;20492;-89
2022/09/05 07:59:14;;;;;;;150.73;61.00;;;;;;;21.62;55.62;94041.75;4909652;29;20032;-88
2022/09/05 08:02:04;;;;;;;156.20;67.70;;;;;;;21.64;55.38;94047.50;4882409;29;20068;-89
2022/09/05 08:07:12;;;;;;;138.55;60.55;;;;;;;21.68;55.10;94052.69;4732925;27;20733;-94
2022/09/05 08:09:46;;;;;;;115.00;55.50;;;;;;;21.68;55.09;94049.94;4877032;29;20130;-90
2022/09/05 08:12:17;;;;;;;106.32;52.88;;;;;;;21.66;54.98;94053.19;4890408;29;20044;-91
2022/09/05 08:14:51;;;;;;;125.40;61.60;;;;;;;21.69;55.19;94049.41;4881683;29;20040;-86
2022/09/05 08:17:24;;;;;;;131.27;74.35;;;;;;;21.70;54.95;94052.91;4873797;29;20063;-88
2022/09/05 08:20:20;;;;;;;117.70;70.03;;;;;;;21.68;55.14;94050.69;4865736;29;20108;-90
2022/09/05 08:22:48;;;;;;;110.85;63.72;;;;;;;21.70;54.90;94045.41;4881285;29;20064;-90
2022/09/05 08:25:16;;;;;;;173.25;66.88;;;;;;;21.71;55.03;94046.91;4880950;23;20161;-86
2022/09/05 08:27:53;;;;;;;110.97;57.67;;;;;;;21.72;55.26;94039.38;4860443;29;20037;-86
2022/09/05 08:30:26;;;;;;;126.72;60.20;;;;;;;21.72;55.05;94031.13;4894987;29;20064;-86
2022/09/05 08:33:04;;;;;;;145.75;69.22;;;;;;;21.75;54.51;94035.59;4910264;29;20033;-90
2022/09/05 08:35:39;;;;;;;189.50;79.95;;;;;;;21.77;54.92;94036.56;4893159;29;20472;-93
2022/09/05 08:38:05;;;;;;;205.43;86.70;;;;;;;21.81;54.59;94033.53;4891162;29;20064;-87
2022/09/05 08:40:34;;;;;;;211.20;82.75;;;;;;;21.81;55.05;94039.78;4864347;29;20085;-86
2022/09/05 08:43:24;;;;;;;191.45;76.55;;;;;;;21.79;54.87;94036.06;4875743;29;20216;-89
2022/09/05 08:45:57;;;;;;;177.80;72.70;;;;;;;21.79;54.71;94033.31;4885151;29;20056;-90
2022/09/05 08:48:31;;;;;;;155.60;64.22;;;;;;;21.81;54.69;94048.06;4872658;29;20041;-93
2022/09/05 08:51:26;;;;;;;159.45;64.95;;;;;;;21.83;54.65;94040.03;4901413;29;20048;-86
2022/09/05 08:54:10;;;;;;;168.32;65.35;;;;;;;21.80;54.66;94041.06;4881910;29;20037;-93
2022/09/05 08:56:45;;;;;;;142.38;60.72;;;;;;;21.83;54.75;94031.03;4879127;29;20120;-90
2022/09/05 08:59:36;;;;;;;168.18;63.08;;;;;;;21.82;54.53;94032.28;4881040;23;20064;-92
2022/09/05 09:02:39;;;;;;;169.75;67.95;;;;;;;21.82;54.59;94037.78;4869728;29;20041;-91
2022/09/05 09:05:21;;;;;;;191.50;66.20;;;;;;;21.85;54.58;94025.75;4879340;29;20560;-89
2022/09/05 09:07:49;;;;;;;171.18;62.05;;;;;;;21.85;54.63;94031.25;4874729;29;20136;-93
2022/09/05 09:10:45;;;;;;;190.75;55.58;;;;;;;21.83;54.44;94025.50;4862833;29;20053;-91
2022/09/05 09:13:29;;;;;;;152.90;59.63;;;;;;;21.84;54.26;94022.25;4799304;29;20049;-92
2022/09/05 09:16:20;;;;;;;131.27;55.90;;;;;;;21.85;54.36;94012.72;4824104;29;20456;-89
2022/09/05 09:18:48;;;;;;;115.22;45.83;;;;;;;21.89;53.91;94012.41;4789575;29;20050;-91
2022/09/05 09:21:31;;;;;;;116.88;47.60;;;;;;;21.86;54.15;94010.72;4806531;29;20051;-90
2022/09/05 09:24:13;;;;;;;108.57;48.42;;;;;;;21.86;54.31;94013.47;4784555;29;20043;-89
2022/09/05 09:27:04;;;;;;;89.97;42.90;;;;;;;21.87;54.36;94012.19;4799888;29;20051;-90
2022/09/05 09:29:33;;;;;;;95.70;43.60;;;;;;;21.90;54.15;94011.88;4764720;29;20050;-89
2022/09/05 09:32:13;;;;;;;173.40;98.57;;;;;;;21.87;54.31;94010.16;4819823;29;20042;-94
2022/09/05 09:34:46;;;;;;;286.38;183.60;;;;;;;21.88;54.31;94008.16;4791340;23;20043;-91
2022/09/05 09:37:32;;;;;;;206.18;110.15;;;;;;;21.93;54.33;94012.88;4880002;29;20561;-91
2022/09/05 09:40:16;;;;;;;164.63;102.72;;;;;;;21.91;54.32;94015.38;4858397;29;20076;-94
2022/09/05 09:42:56;;;;;;;149.60;81.32;;;;;;;21.96;54.13;94014.59;4859591;29;20504;-93
2022/09/05 09:45:32;;;;;;;125.25;66.95;;;;;;;21.92;54.12;94013.38;4871152;29;20089;-93
2022/09/05 09:48:11;;;;;;;103.75;54.53;;;;;;;21.92;54.21;93992.09;4876849;29;20077;-90
2022/09/05 09:50:58;;;;;;;96.95;47.58;;;;;;;21.92;54.14;94002.38;4858935;29;20045;-92
2022/09/05 09:53:48;;;;;;;88.28;39.88;;;;;;;21.89;53.94;93996.63;4882058;29;20068;-92
2022/09/05 09:56:31;;;;;;;74.03;33.08;;;;;;;21.95;53.76;94001.34;4856115;29;20051;-89
2022/09/05 09:59:16;;;;;;;90.15;37.28;;;;;;;21.93;53.66;94010.09;4857554;29;20050;-92
2022/09/05 10:02:06;;;;;;;87.72;39.50;;;;;;;21.92;53.99;93999.63;4861070;29;20068;-88
2022/09/05 10:04:57;;;;;;;111.18;41.22;;;;;;;21.94;53.84;93992.34;4853618;29;20513;-89
2022/09/05 10:07:52;;;;;;;105.95;40.47;;;;;;;21.89;53.82;93999.38;4873496;29;20053;-92
2022/09/05 10:10:31;;;;;;;125.70;39.85;;;;;;;21.94;53.72;93999.84;4843189;29;20033;-87
2022/09/05 10:13:21;;;;;;;100.88;35.75;;;;;;;21.93;53.54;93995.59;4863845;29;20064;-91
2022/09/05 10:16:24;;;;;;;84.80;31.80;;;;;;;21.89;53.59;94007.66;4861598;29;20044;-90
2022/09/05 10:19:11;;;;;;;68.35;26.98;;;;;;;21.94;53.34;93997.09;4888417;29;20057;-93
2022/09/05 10:21:56;;;;;;;64.72;27.17;;;;;;;21.89;53.53;93996.63;4881803;29;20078;-90
2022/09/05 10:25:09;;;;;;;61.25;27.90;;;;;;;21.89;53.55;93996.63;4877784;29;20048;-92
2022/09/05 10:27:58;;;;;;;49.30;24.85;;;;;;;21.94;53.80;94005.34;4864994;29;20112;-89
2022/09/05 10:33:18;;;;;;;52.33;27.38;;;;;;;21.93;53.68;93992.84;4896354;23;20184;-87
2022/09/05 10:35:52;;;;;;;62.22;32.50;;;;;;;21.96;53.55;94014.59;4892353;29;20048;-88
2022/09/05 10:38:40;;;;;;;49.03;24.10;;;;;;;21.93;53.60;93993.59;4861384;29;20336;-90
2022/09/05 10:41:10;;;;;;;47.90;23.98;;;;;;;22.01;53.35;93989.03;4884291;29;20290;-90
2022/09/05 10:43:49;;;;;;;36.95;18.95;;;;;;;21.99;53.40;93997.03;4878520;29;20104;-92
2022/09/05 10:46:25;;;;;;;30.95;18.88;;;;;;;22.03;53.43;93992.00;4891043;29;20367;-89
2022/09/05 10:48:56;;;;;;;42.33;17.70;;;;;;;22.07;53.41;93986.94;4833937;29;20048;-90
2022/09/05 10:51:28;;;;;;;;;;;;;;;22.00;53.38;93986.75;4851718;29;20053;-91
2022/09/05 10:54:02;;;;;;;37.47;18.88;;;;;;;22.03;53.19;93983.75;4870130;29;19919;-96
2022/09/05 10:56:30;;;;;;;72.25;39.17;;;;;;;22.10;53.19;93985.88;4865415;29;20063;-86
2022/09/05 10:59:03;;;;;;;169.23;84.10;;;;;;;22.12;53.35;93988.13;4835274;29;20513;-88
2022/09/05 11:01:40;;;;;;;124.85;62.45;;;;;;;22.12;53.11;93983.34;4874358;29;20061;-86
2022/09/05 11:04:54;;;;;;;161.40;66.25;;;;;;;22.14;53.04;93989.09;4836494;29;20891;-90
2022/09/05 11:07:40;;;;;;;170.57;65.60;;;;;;;22.17;53.12;93979.78;4803020;29;20065;-91
2022/09/05 11:10:13;;;;;;;171.90;67.40;;;;;;;22.16;53.26;93981.06;4763887;29;20044;-90
2022/09/05 11:12:53;;;;;;;202.23;72.05;;;;;;;22.15;53.17;93984.31;4753123;29;20063;-90
2022/09/05 11:15:43;;;;;;;313.38;82.25;;;;;;;22.17;53.38;93984.56;4775182;29;20044;-92
2022/09/05 11:18:21;;;;;;;320.23;82.55;;;;;;;22.19;53.31;93979.25;4771431;29;20140;-89
2022/09/05 11:21:06;;;;;;;253.55;70.18;;;;;;;22.15;53.42;93987.06;4791867;29;20055;-90
2022/09/05 11:23:40;;;;;;;304.27;61.20;;;;;;;22.13;53.11;93979.34;4810027;29;20053;-88
2022/09/05 11:26:08;;;;;;;194.73;31.02;;;;;;;22.09;51.70;93975.38;4794106;29;20084;-90
2022/09/05 11:28:40;;;;;;;165.77;29.10;;;;;;;22.10;51.55;93977.63;4796940;29;20186;-88
2022/09/05 11:31:14;;;;;;;109.15;22.35;;;;;;;22.11;51.58;93981.13;4798638;29;20042;-92
2022/09/05 11:33:48;;;;;;;82.95;17.30;;;;;;;22.07;51.51;93980.69;4828273;23;20050;-89
2022/09/05 11:36:25;;;;;;;100.97;20.48;;;;;;;22.07;51.75;93980.69;4872407;29;20041;-89
2022/09/05 11:39:15;;;;;;;74.53;15.77;;;;;;;22.06;51.74;93979.94;4843833;29;20053;-87
2022/09/05 11:41:59;;;;;;;65.30;16.60;;;;;;;22.10;52.31;93979.63;4873664;29;20045;-88
2022/09/05 11:44:55;;;;;;;55.47;20.33;;;;;;;22.08;52.01;93980.19;4848790;29;20282;-88
2022/09/05 11:47:32;;;;;;;65.78;18.58;;;;;;;22.07;52.15;93980.69;4853591;29;20057;-94
2022/09/05 11:50:14;;;;;;;43.90;14.27;;;;;;;22.11;52.78;93970.09;4856374;29;20049;-89
2022/09/05 11:53:02;;;;;;;31.52;12.88;;;;;;;22.06;52.46;93973.69;4842817;29;20061;-90
2022/09/05 11:58:02;;;;;;;31.30;12.50;;;;;;;22.10;51.99;93963.09;4903476;29;20044;-88
2022/09/05 12:00:39;;;;;;;72.88;21.10;;;;;;;22.04;51.91;93971.47;4880389;29;20053;-87
2022/09/05 12:03:37;;;;;;;56.80;18.90;;;;;;;22.04;51.83;93973.47;4885372;29;20049;-88
2022/09/05 12:06:33;;;;;;;58.55;23.88;;;;;;;22.06;52.13;93974.44;4885741;29;20032;-92
2022/09/05 12:09:55;;;;;;;29.15;14.05;;;;;;;22.05;52.50;93972.22;4884852;29;20047;-90
2022/09/05 12:12:54;;;;;;;45.70;14.77;;;;;;;22.07;52.43;93969.69;4813672;29;20102;-93
2022/09/05 12:18:09;;;;;;;19.00;7.97;;;;;;;22.06;52.92;93963.44;4887249;23;20067;-87
2022/09/05 12:21:11;;;;;;;21.93;8.63;;;;;;;22.07;52.88;93967.69;4893127;29;20049;-88
2022/09/05 12:23:46;;;;;;;23.50;10.85;;;;;;;22.10;52.83;93963.84;4920085;23;20275;-94
2022/09/05 12:26:29;;;;;;;22.67;11.90;;;;;;;22.09;53.25;93959.63;4903269;29;20043;-86
2022/09/05 12:28:58;;;;;;;29.85;13.05;;;;;;;22.12;53.07;93960.59;4862739;29;20065;-86
2022/09/05 12:33:50;;;;;;;43.83;22.45;;;;;;;22.11;52.93;93943.31;4896373;23;20041;-85
2022/09/05 12:36:27;;;;;;;36.45;20.38;;;;;;;22.13;53.42;93949.03;4831472;29;20073;-87
2022/09/05 12:39:23;;;;;;;46.63;27.73;;;;;;;22.17;54.90;93940.50;4874023;29;20032;-88
2022/09/05 12:42:17;;;;;;;23.70;16.52;;;;;;;22.20;54.21;93948.44;4866396;29;20045;-87
2022/09/05 12:45:10;;;;;;;20.38;12.50;;;;;;;22.24;54.00;93939.91;4829038;29;20048;-90
2022/09/05 12:47:51;;;;;;;15.32;9.20;;;;;;;22.26;53.74;93947.63;4829666;29;20045;-87
2022/09/05 12:50:17;;;;;;;12.02;8.32;;;;;;;22.27;53.42;93941.59;4867743;29;20040;-86
2022/09/05 12:52:45;;;;;;;13.18;8.07;;;;;;;22.28;53.38;93939.59;4876925;29;20045;-86
2022/09/05 12:55:21;;;;;;;19.58;8.32;;;;;;;22.24;53.23;93942.66;4853893;29;20052;-85
2022/09/05 12:57:49;;;;;;;17.45;8.48;;;;;;;22.26;53.34;93939.38;4838946;29;20051;-88
2022/09/05 13:00:20;;;;;;;13.32;10.32;;;;;;;22.20;54.00;93934.69;4799599;29;20708;-88
2022/09/05 13:02:58;;;;;;;27.50;12.27;;;;;;;22.23;53.82;93933.63;4790978;29;20046;-88